Time;durP1;ratioP1;P1;durP2;ratioP2;P2;SDS_P1;SDS_P2;PMS_P1;PMS_P2;Temp;Humidity;BMP_temperature;BMP_pressure;BME280_temperature;BME280_humidity;BME280_pressure;Samples;Min_cycle;Max_cycle;Signal;HPM_P1;HPM_P2
2022/08/26 00:02:06;;;;;;;;;;;;;;;21.08;64.21;97764.41;5021576;28;20552;-91
2022/08/26 00:04:39;;;;;;;;;;;;;;;21.08;64.50;97767.16;5029411;28;19929;-90
2022/08/26 00:07:08;;;;;;;;;;;;;;;21.02;64.74;97759.63;5025435;28;19925;-90
2022/08/26 00:09:36;;;;;;;;;;;;;;;21.05;64.36;97758.88;5024323;28;20042;-90
2022/08/26 00:12:08;;;;;;;;;;;;;;;21.01;64.53;97758.06;5030295;28;19925;-90
2022/08/26 00:14:37;;;;;;;;;;;;;;;20.86;65.12;97774.50;5023886;28;20022;-90
2022/08/26 00:17:33;;;;;;;;;;;;;;;20.84;65.14;97771.34;5020794;28;19936;-90
2022/08/26 00:20:01;;;;;;;;;;;;;;;20.72;65.54;97773.59;5033620;28;19925;-90
2022/08/26 00:22:30;;;;;;;645.13;239.18;;;;;;;20.46;66.76;97772.59;5030836;28;20460;-90
2022/08/26 00:24:58;;;;;;;680.87;247.63;;;;;;;20.36;67.10;97774.03;5030857;28;20421;-90
2022/08/26 00:27:35;;;;;;;904.95;311.10;;;;;;;20.30;67.37;97778.31;5024054;28;20412;-90
2022/08/26 00:30:08;;;;;;;555.90;209.45;;;;;;;20.46;66.64;97777.28;5028191;28;20466;-90
2022/08/26 00:32:37;;;;;;;449.73;173.90;;;;;;;20.55;66.27;97780.53;5002388;28;20941;-89
2022/08/26 00:35:08;;;;;;;363.27;152.25;;;;;;;20.66;65.96;97775.91;5053702;28;20921;-90
2022/08/26 00:37:37;;;;;;;;;;;;;;;20.64;65.85;97778.25;5048338;28;20470;-90
2022/08/26 00:40:05;;;;;;;;;;;;;;;20.67;65.76;97770.03;5035075;28;19952;-91
2022/08/26 00:42:33;;;;;;;;;;;;;;;20.80;64.96;97776.03;5054500;28;19924;-90
2022/08/26 00:45:02;;;;;;;;;;;;;;;20.68;65.75;97768.06;5047512;28;19921;-91
2022/08/26 00:47:32;;;;;;;;;;;;;;;20.55;66.20;97770.28;5052954;28;19924;-92
2022/08/26 00:50:05;;;;;;;;;;;;;;;20.66;65.58;97768.41;5054183;28;19966;-89
2022/08/26 00:56:44;;;;;;;;;;;;;;;20.69;65.70;97769.63;5076977;28;19979;-90
2022/08/26 00:59:14;;;;;;;;;;;;;;;20.47;66.33;97771.41;5052371;28;20016;-91
2022/08/26 01:01:42;;;;;;;;;;;;;;;20.55;66.11;97773.03;5059298;28;19990;-88
2022/08/26 01:04:15;;;;;;;;;;;;;;;20.35;66.92;97774.44;5066198;28;19924;-92
2022/08/26 01:06:43;;;;;;;;;;;;;;;20.40;66.69;97772.13;5045619;28;19983;-87
2022/08/26 01:09:13;;;;;;;;;;;;;;;20.39;66.82;97770.50;5045454;28;19921;-92
2022/08/26 01:11:44;;;;;;;;;;;;;;;20.36;66.86;97768.53;5069169;28;19932;-89
2022/08/26 01:14:39;;;;;;;;;;;;;;;20.45;66.50;97764.63;5059581;28;20014;-88
2022/08/26 01:17:33;;;;;;;;;;;;;;;20.01;68.33;97768.94;5050745;28;19948;-91
2022/08/26 01:20:04;;;;;;;;;;;;;;;20.11;67.83;97768.25;5041756;28;19992;-90
2022/08/26 01:22:40;;;;;;;;;;;;;;;20.17;67.56;97774.22;5037268;28;20411;-91
2022/08/26 01:25:09;;;;;;;;;;;;;;;20.17;67.46;97774.22;5045196;28;19921;-92
2022/08/26 01:27:37;;;;;;;;;;;;;;;20.01;68.01;97779.97;5046383;28;19920;-91
2022/08/26 01:30:10;;;;;;;;;;;;;;;19.79;69.07;97773.41;5030898;28;20421;-91
2022/08/26 01:32:38;;;;;;;;;;;;;;;19.72;69.36;97776.06;5063950;28;19928;-91
2022/08/26 01:35:08;;;;;;;;;;;;;;;19.61;69.56;97772.41;5056770;28;20367;-91
2022/08/26 01:37:38;;;;;;;;;;;;;;;19.60;69.84;97777.13;5035397;28;20523;-91
2022/08/26 01:40:11;;;;;;;;;;;;;;;19.62;69.82;97774.78;5069010;28;19921;-92
2022/08/26 01:42:40;;;;;;;;;;;;;;;19.60;69.82;97779.06;5075096;28;19932;-93
2022/08/26 01:45:10;;;;;;;;;;;;;;;19.61;69.75;97775.94;5044297;28;19924;-92
2022/08/26 01:47:41;;;;;;;;;;;;;;;19.71;69.47;97766.22;5064417;28;19924;-91
2022/08/26 01:50:11;;;;;;;;;;;;;;;19.69;69.54;97771.31;5051674;28;19920;-92
2022/08/26 01:52:39;;;;;;;;;;;;;;;19.85;68.90;97766.38;5053098;28;19936;-92
2022/08/26 01:55:09;;;;;;;;;;;;;;;19.95;68.17;97764.13;5071504;28;19929;-90
2022/08/26 01:57:38;;;;;;;;;;;;;;;20.01;68.07;97766.16;5047283;28;19926;-91
2022/08/26 02:00:07;;;;;;;;;;;;;;;19.94;68.15;97757.81;5066496;28;19924;-91
2022/08/26 02:03:20;;;;;;;;;;;;;;;19.91;68.14;97764.09;5064885;28;20002;-90
2022/08/26 02:05:52;;;;;;;;;;;;;;;19.86;68.51;97761.66;5053880;28;19956;-91
2022/08/26 02:08:20;;;;;;;;;;;;;;;19.70;69.01;97753.59;5069190;28;20378;-91
2022/08/26 02:10:53;;;;;;;;;;;;;;;19.79;68.33;97759.63;5051196;28;19931;-91
2022/08/26 02:13:22;;;;;;;;;;;;;;;19.51;69.41;97751.75;5044361;28;19920;-89
2022/08/26 02:15:49;;;;;;;;;;;;;;;19.30;70.04;97760.53;5048480;28;19928;-91
2022/08/26 02:18:18;;;;;;;;;;;;;;;19.36;69.80;97761.00;5039122;28;19943;-90
2022/08/26 02:20:46;;;;;;;;;;;;;;;19.43;69.43;97757.53;5050239;28;19932;-91
2022/08/26 02:23:18;;;;;;;;;;;;;;;19.31;69.96;97751.09;5052572;28;19970;-90
2022/08/26 02:25:47;;;;;;;;;;;;;;;19.45;69.51;97760.75;5051474;28;20359;-90
2022/08/26 02:28:19;;;;;;;;;;;;;;;19.49;69.24;97765.09;5059358;28;19928;-91
2022/08/26 02:31:13;;;;;;;;;;;;;;;19.56;69.00;97764.44;5039762;28;19943;-90
2022/08/26 02:33:43;;;;;;;;;;;;;;;19.47;69.33;97761.16;5050541;28;20363;-89
2022/08/26 02:36:11;;;;;;;;;;;;;;;19.26;70.15;97767.94;5064260;28;20038;-91
2022/08/26 02:38:40;;;;;;;;;;;;;;;19.16;70.61;97767.78;5049593;28;19925;-90
2022/08/26 02:44:03;;;;;;;;;;;;;;;19.36;69.81;97772.81;5044875;28;19920;-90
2022/08/26 02:46:32;;;;;;;;;;;;;;;19.43;69.45;97769.34;5068842;28;19926;-89
2022/08/26 02:49:00;;;;;;;;;;;;;;;19.43;69.53;97769.34;5059247;28;19927;-90
2022/08/26 02:51:28;;;;;;;;;;;;;;;19.43;69.50;97771.31;5034294;28;20334;-90
2022/08/26 02:53:56;;;;;;;;;;;;;;;19.51;69.19;97767.50;5036114;28;19929;-91
2022/08/26 02:56:24;;;;;;;;;;;;;;;19.37;70.06;97766.13;5046331;28;19971;-92
2022/08/26 02:58:55;;;;;;;;;;;;;;;19.21;70.49;97768.25;5063650;28;19921;-92
2022/08/26 03:01:29;;;;;;;;;;;;;;;19.28;70.06;97762.88;5048832;28;19920;-90
2022/08/26 03:03:59;;;;;;;;;;;;;;;19.33;69.79;97757.06;5057903;28;19920;-90
2022/08/26 03:06:27;;;;;;;;;;;;;;;19.27;70.39;97757.72;5046750;28;19925;-91
2022/08/26 03:08:56;;;;;;;147.48;97.68;;;;;;;19.23;70.46;97759.63;5034049;28;20504;-89
2022/08/26 03:11:27;;;;;;;;;;;;;;;19.17;70.62;97752.84;5064662;28;20425;-89
2022/08/26 03:14:02;;;;;;;;;;;;;;;18.99;71.66;97753.38;5068040;28;20379;-91
2022/08/26 03:16:32;;;;;;;;;;;;;;;19.00;71.44;97751.44;5057997;28;19995;-93
2022/08/26 03:19:04;;;;;;;;;;;;;;;19.00;71.38;97741.22;5033498;28;20023;-92
2022/08/26 03:21:32;;;;;;;;;;;;;;;19.03;71.37;97747.94;5076148;28;19920;-91
2022/08/26 03:24:00;;;;;;;;;;;;;;;19.09;71.00;97749.22;5078717;28;19927;-92
2022/08/26 03:26:30;;;;;;;;;;;;;;;19.19;70.60;97753.28;5071457;28;19988;-91
2022/08/26 03:32:17;;;;;;;;;;;;;;;18.99;71.37;97745.13;5051458;28;19931;-88
2022/08/26 03:34:46;;;;;;;;;;;;;;;19.00;71.32;97745.94;5085988;28;19947;-85
2022/08/26 03:37:14;;;;;;;;;;;;;;;18.74;72.38;97736.47;5055951;28;19927;-89
2022/08/26 03:39:43;;;;;;;;;;;;;;;18.87;71.89;97739.84;5090494;28;19928;-85
2022/08/26 03:42:11;;;;;;;;;;;;;;;19.03;71.16;97745.19;5078159;28;19909;-83
2022/08/26 03:44:39;;;;;;;;;;;;;;;18.80;71.99;97746.03;5078927;28;19915;-87
2022/08/26 03:47:08;;;;;;;;;;;;;;;18.92;71.60;97742.28;5077206;28;19956;-86
2022/08/26 03:49:40;;;;;;;;;;;;;;;18.94;71.49;97744.66;5072941;28;20372;-91
2022/08/26 03:52:09;;;;;;;;;;;;;;;18.81;72.17;97744.06;5049260;28;19926;-90
2022/08/26 03:54:37;;;;;;;;;;;;;;;18.87;71.80;97739.06;5051334;28;19920;-90
2022/08/26 03:57:05;;;;;;;;;;;;;;;18.80;71.97;97737.78;5067129;28;19932;-90
2022/08/26 03:59:33;;;;;;;;;;;;;;;18.86;71.92;97738.25;5049591;28;19955;-89
2022/08/26 04:02:01;;;;;;;;;;;;;;;18.82;72.00;97742.91;5046676;28;19975;-88
2022/08/26 04:04:54;;;;;;;;;;;;;;;18.56;73.03;97727.94;5057575;28;19927;-89
2022/08/26 04:07:24;;;;;;;;;;;;;;;18.45;73.38;97737.97;5064839;28;19928;-89
2022/08/26 04:09:55;;;;;;;;;;;;;;;18.66;72.80;97739.47;5052045;28;19920;-90
2022/08/26 04:12:26;;;;;;;;;;;;;;;18.64;72.95;97734.31;5051754;28;19979;-89
2022/08/26 04:14:54;;;;;;;;;;;;;;;18.76;72.42;97738.88;5056154;28;20375;-88
2022/08/26 04:17:24;;;;;;;;;;;;;;;18.65;72.53;97735.94;5066812;28;19955;-90
2022/08/26 04:19:53;;;;;;;;;;;;;;;18.64;72.85;97737.06;5056112;28;19921;-88
2022/08/26 04:22:21;;;;;;;;;;;;;;;18.79;72.21;97736.16;5046854;28;19992;-87
2022/08/26 04:24:55;;;;;;;;;;;;;;;18.94;71.30;97737.19;5033915;28;19935;-89
2022/08/26 04:27:53;;;;;;;;;;;;;;;18.82;71.97;97735.44;5054312;28;19982;-91
2022/08/26 04:30:46;;;;;;;;;;;;;;;18.93;71.66;97738.38;5063606;28;20010;-91
2022/08/26 04:33:14;;;;;;;;;;;;;;;18.89;71.73;97731.22;5051239;28;19967;-89
2022/08/26 04:36:08;;;;;;;;;;;;;;;18.95;71.39;97736.03;5024842;28;20423;-90
2022/08/26 04:38:36;;;;;;;;;;;;;;;18.91;71.71;97734.38;5030422;28;19921;-89
2022/08/26 04:41:10;;;;;;;;;;;;;;;18.64;72.70;97731.56;5029931;28;19925;-91
2022/08/26 04:43:42;;;;;;;;;;;;;;;18.67;72.71;97730.84;5029604;28;19928;-89
2022/08/26 04:46:11;;;;;;;;;;;;;;;18.72;72.46;97730.56;5027476;28;19928;-87
2022/08/26 04:48:39;;;;;;;;;;;;;;;18.68;72.63;97731.66;5033512;28;19925;-90
2022/08/26 04:51:59;;;;;;;685.47;245.40;;;;;;;18.88;71.95;97744.19;5023359;28;20436;-90
2022/08/26 04:54:29;;;;;;;677.13;246.50;;;;;;;18.96;71.70;97742.31;5001473;28;20431;-87
2022/08/26 04:56:59;;;;;;;;;;;;;;;19.04;71.16;97744.03;5031242;28;20510;-86
2022/08/26 04:59:27;;;;;;;;;;;;;;;19.15;71.04;97755.19;5021533;28;19921;-85
2022/08/26 05:01:58;;;;;;;;;;;;;;;19.08;70.65;97756.69;5020537;28;19928;-81
2022/08/26 05:04:26;;;;;;;;;;;;;;;19.01;70.84;97756.56;5043355;28;20008;-79
2022/08/26 05:06:54;;;;;;;;;;;;;;;19.10;70.50;97759.06;5027264;28;19921;-81
2022/08/26 05:09:29;;;;;;;;;;;;;;;18.94;70.93;97750.16;5028460;28;19987;-85
2022/08/26 05:11:57;;;;;;;;;;;;;;;18.81;71.61;97746.84;5029201;28;19922;-82
2022/08/26 05:14:26;;;;;;;;;;;;;;;19.00;70.85;97752.22;5022990;28;19972;-85
2022/08/26 05:16:55;;;;;;;;;;;;;;;19.13;70.48;97755.56;5028550;28;19929;-89
2022/08/26 05:19:26;;;;;;;;;;;;;;;18.97;71.29;97757.69;5029485;28;20025;-83
2022/08/26 05:21:54;;;;;;;;;;;;;;;18.82;71.63;97762.97;5027800;28;19928;-87
2022/08/26 05:24:23;;;;;;;;;;;;;;;19.08;70.72;97764.16;5026889;28;19929;-80
2022/08/26 05:26:50;;;;;;;;;;;;;;;19.01;70.85;97762.06;5027304;28;19963;-82
2022/08/26 05:29:21;;;;;;;;;;;;;;;18.80;72.02;97759.81;4997331;28;19925;-84
2022/08/26 05:31:56;;;;;;;;;;;;;;;18.59;72.82;97762.19;5023977;28;19921;-83
2022/08/26 05:34:24;;;;;;;;;;;;;;;18.60;72.70;97758.25;5025621;28;19925;-82
2022/08/26 05:36:57;;;;;;;;;;;;;;;18.87;71.93;97756.34;5027667;28;19936;-82
2022/08/26 05:39:25;;;;;;;;;;;;;;;19.06;71.30;97769.22;5022117;28;19921;-83
2022/08/26 05:41:54;;;;;;;;;;;;;;;19.18;70.71;97769.03;5010118;28;19921;-82
2022/08/26 05:44:21;;;;;;;;;;;;;;;19.24;70.39;97772.25;5023286;28;19921;-84
2022/08/26 05:46:52;;;;;;;;;;;;;;;19.04;70.98;97768.81;5024626;28;19929;-83
2022/08/26 05:49:21;;;;;;;;;;;;;;;18.93;72.01;97776.91;5026341;28;20459;-84
2022/08/26 05:51:53;;;;;;;;;;;;;;;19.01;71.84;97769.53;5020415;28;20012;-83
2022/08/26 05:54:21;;;;;;;;;;;;;;;19.16;71.44;97773.31;5039575;28;19921;-82
2022/08/26 05:56:49;;;;;;;;;;;;;;;19.40;70.43;97777.59;5006702;28;19936;-79
2022/08/26 05:59:17;;;;;;;;;;;;;;;19.47;70.11;97769.41;5026495;28;19933;-82
2022/08/26 06:01:50;;;;;;;;;;;;;;;19.38;70.31;97775.97;5026318;28;19920;-78
2022/08/26 06:04:19;;;;;;;;;;;;;;;19.60;69.58;97765.28;5023774;28;19921;-87
2022/08/26 06:06:48;;;;;;;;;;;;;;;19.73;69.27;97763.09;5026343;28;19953;-82
2022/08/26 06:09:19;;;;;;;;;;;;;;;19.84;68.84;97764.00;5019459;28;19929;-85
2022/08/26 06:11:46;;;;;;;;;;;;;;;19.90;68.69;97773.53;5024743;28;19922;-86
2022/08/26 06:14:39;;;;;;;;;;;;;;;19.99;68.59;97778.75;5038672;28;19921;-85
2022/08/26 06:17:34;;;;;;;;;;;;;;;19.84;69.26;97773.06;5017841;28;19929;-80
2022/08/26 06:20:02;;;;;;;;;;;;;;;19.98;68.78;97780.72;5021355;28;19925;-86
2022/08/26 06:28:08;;;;;;;;;;;;;;;20.33;67.43;97779.50;5021847;28;19936;-84
2022/08/26 06:30:40;;;;;;;;;;;;;;;20.39;67.59;97778.00;5036838;28;19925;-85
2022/08/26 06:33:08;;;;;;;;;;;;;;;20.41;67.48;97770.16;5041957;28;19924;-85
2022/08/26 06:35:38;;;;;;;;;;;;;;;20.44;67.62;97779.63;5026438;28;19921;-85
2022/08/26 06:38:08;;;;;;;;;;;;;;;20.21;68.18;97782.53;5024319;28;19921;-84
2022/08/26 06:40:40;;;;;;;;;;;;;;;20.16;68.29;97775.41;5006907;28;20506;-86
2022/08/26 06:43:09;;;;;;;;;;;;;;;20.23;67.99;97780.97;5026433;28;19948;-83
2022/08/26 06:45:37;;;;;;;15.80;7.30;;;;;;;19.97;69.04;97779.13;5003169;28;20427;-87
2022/08/26 06:48:08;;;;;;;;;;;;;;;19.86;69.52;97778.19;5026556;28;19979;-85
2022/08/26 06:50:36;;;;;;;;;;;;;;;19.94;69.29;97773.56;5027885;28;19929;-86
2022/08/26 06:53:04;;;;;;;;;;;;;;;20.05;68.81;97771.72;5031357;28;19925;-83
2022/08/26 06:56:02;;;;;;;;;;;;;;;20.17;68.77;97776.97;5026452;28;19925;-78
2022/08/26 06:58:32;;;;;;;;;;;;;;;20.22;68.45;97787.66;5026495;28;19932;-82
2022/08/26 07:01:00;;;;;;;;;;;;;;;20.23;68.49;97783.75;5029860;28;19926;-83
2022/08/26 07:03:31;;;;;;;;;;;;;;;20.35;67.88;97779.94;5025461;28;19979;-80
2022/08/26 07:06:02;;;;;;;;;;;;;;;20.30;68.24;97775.56;5046278;28;19932;-82
2022/08/26 07:08:30;;;;;;;;;;;;;;;20.38;67.87;97777.19;5027020;28;19925;-82
2022/08/26 07:10:58;;;;;;;;;;;;;;;20.41;67.93;97779.22;5044540;28;19926;-81
2022/08/26 07:13:26;;;;;;;;;;;;;;;20.46;68.07;97780.88;5027087;28;19926;-83
2022/08/26 07:15:58;;;;;;;;;;;;;;;20.49;67.88;97782.84;5028276;28;20019;-79
2022/08/26 07:18:29;;;;;;;;;;;;;;;20.33;68.48;97782.25;5029006;28;19925;-83
2022/08/26 07:20:58;;;;;;;;;;;;;;;20.50;67.67;97780.88;5033100;28;20029;-82
2022/08/26 07:23:26;;;;;;;;;;;;;;;20.59;67.73;97778.59;5030133;28;19975;-86
2022/08/26 07:25:56;;;;;;;;;;;;;;;20.65;67.41;97779.84;5030510;28;20402;-77
2022/08/26 07:28:24;;;;;;;;;;;;;;;20.71;67.79;97775.56;5029019;28;19925;-78
2022/08/26 07:30:52;;;;;;;;;;;;;;;20.77;67.38;97787.03;5033409;28;19936;-78
2022/08/26 07:33:46;;;;;;;;;;;;;;;20.78;66.96;97789.44;5034659;28;20443;-78
2022/08/26 07:36:15;;;;;;;;;;;;;;;20.86;67.68;97788.31;5055244;28;20037;-79
2022/08/26 07:38:44;;;;;;;;;;;;;;;20.92;67.14;97795.06;5038413;28;20461;-78
2022/08/26 07:41:15;;;;;;;;;;;;;;;20.94;67.75;97794.69;5054724;28;19921;-79
2022/08/26 07:43:46;;;;;;;;;;;;;;;20.87;67.98;97798.16;5071242;28;19924;-79
2022/08/26 07:46:18;;;;;;;;;;;;;;;20.87;67.34;97798.16;5055019;28;20371;-79
2022/08/26 07:48:50;;;;;;;;;;;;;;;20.81;67.70;97791.41;5073782;28;20370;-79
2022/08/26 07:51:19;;;;;;;;;;;;;;;20.91;67.59;97792.69;5068774;28;19920;-80
2022/08/26 07:53:47;;;;;;;;;;;;;;;20.98;67.21;97789.19;5049582;28;19947;-79
2022/08/26 07:56:45;;;;;;;;;;;;;;;21.38;66.36;97789.09;5072320;28;19927;-81
2022/08/26 07:59:13;;;;;;;;;;;;;;;21.55;65.73;97784.84;5066591;28;19924;-79
2022/08/26 08:01:44;;;;;;;;;;;;;;;21.91;64.72;97788.59;5053644;28;20313;-78
2022/08/26 08:04:16;;;;;;;;;;;;;;;22.14;63.63;97787.50;5050878;28;20391;-79
2022/08/26 08:06:46;;;;;;;;;;;;;;;22.34;62.96;97788.75;5065814;28;20127;-79
2022/08/26 08:09:15;;;;;;;;;;;;;;;22.32;63.07;97788.34;5053222;28;19974;-81
2022/08/26 08:11:43;;;;;;;;;;;;;;;22.55;62.13;97787.22;5052238;28;19951;-79
2022/08/26 08:19:57;;;;;;;;;;;;;;;22.89;61.23;97779.34;5073085;28;19920;-79
2022/08/26 08:22:28;;;;;;;;;;;;;;;23.00;61.04;97780.91;5054033;28;20455;-80
2022/08/26 08:24:58;;;;;;;;;;;;;;;22.88;61.93;97781.31;5070637;28;19936;-81
2022/08/26 08:27:34;;;;;;;;;;;;;;;23.16;60.62;97776.94;5047860;28;19938;-79
2022/08/26 08:30:03;;;;;;;14.05;6.43;;;;;;;23.29;60.34;97786.44;5065508;28;20468;-79
2022/08/26 08:32:34;;;;;;;10.68;5.95;;;;;;;23.39;60.35;97769.00;5071518;28;20455;-79
2022/08/26 08:35:04;;;;;;;;;;;;;;;23.53;60.03;97768.16;5053508;28;20449;-79
2022/08/26 08:37:39;;;;;;;;;;;;;;;23.63;59.44;97767.34;5074295;28;20027;-80
2022/08/26 08:40:08;;;;;;;;;;;;;;;23.70;59.60;97761.81;5063941;28;19970;-80
2022/08/26 08:42:41;;;;;;;;;;;;;;;23.81;60.51;97760.94;5073832;28;19959;-80
2022/08/26 08:45:10;;;;;;;;;;;;;;;23.85;59.75;97765.28;5066698;28;19921;-81
2022/08/26 08:47:42;;;;;;;;;;;;;;;23.79;58.98;97753.81;5048235;28;19943;-80
2022/08/26 08:50:22;;;;;;;;;;;;;;;23.86;58.84;97755.75;5070192;28;20698;-80
2022/08/26 08:52:52;;;;;;;;;;;;;;;23.96;59.65;97752.16;5066293;28;19979;-75
2022/08/26 08:55:20;;;;;;;;;;;;;;;24.15;58.81;97755.63;5065824;28;19962;-80
2022/08/26 08:57:53;;;;;;;;;;;;;;;24.19;58.56;97753.66;5067549;28;19947;-80
2022/08/26 09:00:23;;;;;;;;;;;;;;;24.39;57.32;97756.69;5067647;28;19966;-80
2022/08/26 09:02:57;;;;;;;;;;;;;;;24.55;56.19;97763.34;5063934;28;19920;-80
2022/08/26 09:05:28;;;;;;;;;;;;;;;24.54;56.48;97747.88;5035840;28;19967;-79
2022/08/26 09:07:57;;;;;;;;;;;;;;;24.69;55.70;97747.78;5052946;28;20368;-80
2022/08/26 09:10:35;;;;;;;;;;;;;;;24.58;57.06;97747.06;5064081;28;20006;-80
2022/08/26 09:13:05;;;;;;;;;;;;;;;24.63;56.61;97746.63;5050823;28;19945;-81
2022/08/26 09:15:35;;;;;;;;;;;;;;;24.67;56.22;97739.06;5068155;28;19959;-81
2022/08/26 09:18:08;;;;;;;;;;;;;;;24.75;56.74;97735.81;5068117;28;19920;-80
2022/08/26 09:21:03;;;;;;;;;;;;;;;24.67;56.76;97733.50;5072410;28;19920;-83
2022/08/26 09:23:31;;;;;;;;;;;;;;;24.87;55.52;97733.72;5068116;28;19924;-82
2022/08/26 09:26:00;;;;;;;;;;;;;;;25.01;55.99;97739.94;5045482;28;20363;-82
2022/08/26 09:28:30;;;;;;;;;;;;;;;25.07;56.05;97731.97;5048369;28;19924;-82
2022/08/26 09:31:26;;;;;;;;;;;;;;;25.16;55.62;97726.72;5060569;28;19921;-82
2022/08/26 09:34:12;;;;;;;;;;;;;;;25.29;54.47;97725.00;5046718;28;19931;-84
2022/08/26 09:39:38;;;;;;;;;;;;;;;25.48;53.81;97720.81;5070439;28;19920;-86
2022/08/26 09:42:07;;;;;;;;;;;;;;;25.43;54.17;97718.50;5052241;28;19998;-86
2022/08/26 09:44:52;;;;;;;;;;;;;;;25.46;54.59;97711.31;5065605;28;19920;-84
2022/08/26 09:47:21;;;;;;;;;;;;;;;25.56;53.51;97713.16;5050683;28;20011;-84
2022/08/26 09:52:53;;;;;;;;;;;;;;;25.71;52.35;97706.22;5069816;28;20008;-84
2022/08/26 09:55:23;;;;;;;;;;;;;;;25.79;51.84;97691.06;5070507;28;20367;-84
2022/08/26 09:57:51;;;;;;;;;;;;;;;25.85;50.89;97689.38;5056046;28;19920;-81
2022/08/26 10:00:44;;;;;;;;;;;;;;;25.76;51.40;97685.53;5027695;28;21732;-88
2022/08/26 10:03:13;;;;;;;;;;;;;;;25.77;50.91;97681.53;5061141;28;20406;-83
2022/08/26 10:08:38;;;;;;;;;;;;;;;25.79;51.59;97656.88;5066646;28;20019;-82
2022/08/26 10:11:11;;;;;;;;;;;;;;;25.65;51.20;97657.81;5071073;28;19920;-82
2022/08/26 10:13:41;;;;;;;;;;;;;;;25.61;51.75;97655.09;5047832;28;19971;-87
2022/08/26 10:16:11;;;;;;;;;;;;;;;25.61;51.68;97654.28;5048296;28;19925;-84
2022/08/26 10:18:40;;;;;;;;;;;;;;;25.49;52.16;97652.84;5064503;28;19951;-87
2022/08/26 10:21:12;;;;;;;;;;;;;;;25.60;53.22;97647.94;5070962;28;19925;-89
2022/08/26 10:23:42;;;;;;;;;;;;;;;25.54;53.08;97638.50;5054788;28;19967;-88
2022/08/26 10:26:12;;;;;;;;;;;;;;;25.54;54.75;97635.72;5045947;28;20216;-87
2022/08/26 10:28:41;;;;;;;;;;;;;;;25.62;54.39;97628.06;5064335;28;19925;-84
2022/08/26 10:31:18;;;;;;;;;;;;;;;25.50;52.76;97623.06;5051746;28;20006;-85
2022/08/26 10:33:47;;;;;;;;;;;;;;;25.68;52.68;97625.63;5033102;28;19928;-84
2022/08/26 10:36:50;;;;;;;;;;;;;;;25.83;52.40;97629.78;5047218;28;20399;-87
2022/08/26 10:39:43;;;;;;;;;;;;;;;26.06;50.84;97626.28;5054073;28;19970;-89
2022/08/26 10:42:16;;;;;;;;;;;;;;;26.21;49.75;97621.28;5051069;28;19928;-88
2022/08/26 10:44:50;;;;;;;;;;;;;;;26.26;49.97;97615.19;5061548;28;19920;-90
2022/08/26 10:47:19;;;;;;;;;;;;;;;26.13;51.08;97615.03;5030428;28;20330;-87
2022/08/26 10:49:49;;;;;;;;;;;;;;;25.97;50.43;97614.88;5058265;28;20375;-90
2022/08/26 10:52:18;;;;;;;;;;;;;;;26.05;50.18;97619.91;5065517;28;19932;-88
2022/08/26 10:54:50;;;;;;;;;;;;;;;26.18;50.00;97611.75;5065598;28;19928;-89
2022/08/26 10:57:20;;;;;;;;;;;;;;;26.29;49.04;97611.59;5052089;28;19986;-89
2022/08/26 10:59:53;;;;;;;;;;;;;;;26.37;49.22;97608.25;5052072;28;20600;-89
2022/08/26 11:02:23;;;;;;;;;;;;;;;26.41;49.70;97613.75;5046395;28;20378;-88
2022/08/26 11:04:55;;;;;;;;;;;;;;;26.53;49.25;97610.41;5043318;28;20132;-90
2022/08/26 11:07:44;;;;;;;;;;;;;;;26.52;49.66;97608.81;5044489;28;19931;-89
2022/08/26 11:13:59;;;;;;;;;;;;;;;26.71;48.84;97621.22;5057425;28;19928;-89
2022/08/26 11:16:38;;;;;;;;;;;;;;;26.79;48.75;97599.56;4976320;28;19926;-89
2022/08/26 11:19:13;;;;;;;;;;;;;;;26.84;48.08;97607.44;4986503;28;19926;-88
2022/08/26 11:21:47;;;;;;;;;;;;;;;26.79;46.45;97599.56;4945664;28;20007;-90
2022/08/26 11:24:36;;;;;;;;;;;;;;;26.86;48.08;97597.47;4983213;28;20444;-90
2022/08/26 11:27:04;;;;;;;;;;;;;;;26.90;47.70;97594.63;4985347;28;19981;-88
2022/08/26 11:29:47;;;;;;;;;;;;;;;27.03;47.77;97597.53;4985475;28;19956;-90
2022/08/26 11:32:24;;;;;;;;;;;;;;;27.04;47.71;97587.94;4985339;28;19972;-90
2022/08/26 11:35:40;;;;;;;;;;;;;;;27.09;47.27;97591.06;4987149;28;19926;-89
2022/08/26 11:38:13;;;;;;;;;;;;;;;26.98;47.64;97582.09;4987370;28;19933;-90
2022/08/26 11:40:41;;;;;;;;;;;;;;;27.04;46.96;97574.81;4986237;28;20364;-90
2022/08/26 11:43:11;;;;;;;;;;;;;;;26.86;47.74;97575.16;4975956;28;19926;-88
2022/08/26 11:45:40;;;;;;;;;;;;;;;26.78;47.79;97565.34;4985951;28;19927;-89
2022/08/26 11:48:17;;;;;;;;;;;;;;;26.90;47.93;97558.38;5024262;28;19948;-90
2022/08/26 11:50:52;;;;;;;;;;;;;;;27.05;47.98;97561.63;5045132;28;19924;-90
2022/08/26 11:53:21;;;;;;;;;;;;;;;27.12;47.02;97553.97;5046719;28;19925;-90
2022/08/26 11:55:50;;;;;;;;;;;;;;;27.14;47.01;97554.31;5042933;28;20326;-89
2022/08/26 11:58:18;;;;;;;;;;;;;;;27.23;47.16;97556.53;5044979;28;19932;-87
2022/08/26 12:00:49;;;;;;;;;;;;;;;27.36;46.43;97549.06;5045588;28;19929;-86
2022/08/26 12:03:20;;;;;;;;;;;;;;;27.41;46.02;97550.56;5040961;28;19933;-83
2022/08/26 12:05:50;;;;;;;;;;;;;;;27.47;45.75;97540.44;5045135;28;19931;-83
2022/08/26 12:08:27;;;;;;;;;;;;;;;27.52;45.57;97542.72;5043085;28;19932;-84
2022/08/26 12:11:08;;;;;;;;;;;;;;;27.54;43.84;97526.34;5051217;28;20015;-81
2022/08/26 12:17:26;;;;;;;;;;;;;;;27.76;44.72;97529.47;5028326;28;19939;-83
2022/08/26 12:19:58;;;;;;;;;;;;;;;27.95;43.35;97522.22;5046402;28;20036;-84
2022/08/26 12:22:27;;;;;;;9.52;4.57;;;;;;;27.89;44.34;97512.78;5048426;28;20436;-86
2022/08/26 12:25:01;;;;;;;11.48;4.95;;;;;;;27.92;44.32;97517.50;5044466;28;20427;-86
2022/08/26 12:27:33;;;;;;;;;;;;;;;27.79;44.58;97513.84;5048077;28;20417;-87
2022/08/26 12:30:23;;;;;;;;;;;;;;;27.73;44.45;97516.34;5061053;28;19927;-83
2022/08/26 12:33:16;;;;;;;;;;;;;;;27.80;44.68;97515.41;5070116;28;19925;-85
2022/08/26 12:35:52;;;;;;;;;;;;;;;27.62;45.04;97521.38;5055484;28;19959;-81
2022/08/26 12:38:27;;;;;;;;;;;;;;;27.56;44.89;97521.13;5071244;28;19911;-83
2022/08/26 12:40:56;;;;;;;;;;;;;;;27.61;44.48;97517.81;5065613;28;19921;-81
2022/08/26 12:43:36;;;;;;;;;;;;;;;27.72;43.25;97514.00;5054412;28;19928;-88
2022/08/26 12:46:05;;;;;;;10.10;4.10;;;;;;;27.91;43.41;97501.97;5065605;28;20380;-84
2022/08/26 12:48:34;;;;;;;;;;;;;;;27.71;44.53;97504.84;5051666;28;20504;-82
2022/08/26 12:51:06;;;;;;;;;;;;;;;27.74;43.86;97492.03;5057722;28;19929;-88
2022/08/26 12:54:57;;;;;;;;;;;;;;;27.55;44.17;97488.06;5070751;28;19927;-87
2022/08/26 13:00:26;;;;;;;;;;;;;;;27.32;43.59;97489.75;5035063;28;19921;-89
2022/08/26 13:02:55;;;;;;;;;;;;;;;27.25;43.81;97480.78;5035794;28;19928;-88
2022/08/26 13:05:24;;;;;;;;;;;;;;;27.29;41.83;97473.13;5043976;28;19943;-84
2022/08/26 13:08:11;;;;;;;;;;;;;;;27.35;41.92;97463.81;5037597;28;19975;-88
2022/08/26 13:10:42;;;;;;;;;;;;;;;27.56;43.81;97461.75;5041300;28;19943;-90
2022/08/26 13:13:10;;;;;;;;;;;;;;;27.63;43.80;97461.56;5034770;28;19959;-91
2022/08/26 13:15:41;;;;;;;;;;;;;;;27.67;43.84;97465.06;5028667;28;20548;-89
2022/08/26 13:18:09;;;;;;;;;;;;;;;27.72;42.44;97458.97;5035613;28;20555;-93
2022/08/26 13:20:42;;;;;;;;;;;;;;;27.79;42.66;97469.97;5028405;28;19928;-89
2022/08/26 13:23:11;;;;;;;;;;;;;;;27.80;42.98;97471.53;5049519;28;19921;-80
2022/08/26 13:25:39;;;;;;;;;;;;;;;27.72;43.54;97475.72;5038505;28;20268;-88
2022/08/26 13:28:09;;;;;;;;;;;;;;;27.62;44.07;97480.31;5029484;28;20027;-87
2022/08/26 13:33:57;;;;;;;;;;;;;;;27.29;44.43;97499.00;5045045;28;20012;-86
2022/08/26 13:36:25;;;;;;;;;;;;;;;27.26;42.66;97504.66;5031468;28;19975;-88
2022/08/26 13:38:54;;;;;;;;;;;;;;;26.83;45.96;97509.13;5027610;28;19928;-90
2022/08/26 13:41:21;;;;;;;;;;;;;;;26.50;47.52;97504.59;5033907;28;19927;-81
2022/08/26 13:43:58;;;;;;;;;;;;;;;26.17;48.59;97511.94;5043994;28;19921;-89
2022/08/26 13:46:27;;;;;;;;;;;;;;;26.05;49.51;97514.13;5047447;28;20347;-85
2022/08/26 13:48:55;;;;;;;;;;;;;;;25.30;51.30;97520.84;5046340;28;20394;-83
2022/08/26 13:51:24;;;;;;;;;;;;;;;25.29;51.08;97540.69;5051139;28;19920;-82
2022/08/26 13:53:53;;;;;;;1011.77;341.97;;;;;;;24.60;51.93;97544.69;5050486;28;19925;-85